createdAt,value
2023-02-03T00:02:01.556Z,1.70
2023-02-03T00:04:28.896Z,2.15
2023-02-03T00:06:56.593Z,2.92
2023-02-03T00:09:24.013Z,1.60
2023-02-03T00:11:51.408Z,1.80
2023-02-03T00:14:20.464Z,1.80
2023-02-03T00:16:49.939Z,1.70
2023-02-03T00:19:19.843Z,2.47
2023-02-03T00:21:47.445Z,1.58
2023-02-03T00:24:17.487Z,2.20
2023-02-03T00:26:44.958Z,1.60
2023-02-03T00:29:13.837Z,1.80
2023-02-03T00:31:41.776Z,1.98
2023-02-03T00:34:09.345Z,1.65
2023-02-03T00:36:36.620Z,1.35
2023-02-03T00:39:03.917Z,1.75
2023-02-03T00:41:31.823Z,1.55
2023-02-03T00:43:59.269Z,1.88
2023-02-03T00:46:29.260Z,1.63
2023-02-03T00:48:56.609Z,1.58
2023-02-03T00:51:23.941Z,1.42
2023-02-03T00:53:51.291Z,1.50
2023-02-03T00:56:21.852Z,1.55
2023-02-03T00:58:49.084Z,1.73
2023-02-03T01:01:17.273Z,2.40
2023-02-03T01:03:44.596Z,2.38
2023-02-03T01:06:20.624Z,1.60
2023-02-03T01:08:49.786Z,2.10
2023-02-03T01:11:20.555Z,2.40
2023-02-03T01:13:50.456Z,1.73
2023-02-03T01:16:20.007Z,1.50
2023-02-03T01:18:48.495Z,2.03
2023-02-03T01:21:19.206Z,1.90
2023-02-03T01:26:16.547Z,1.90
2023-02-03T01:28:44.055Z,1.30
2023-02-03T01:31:19.254Z,2.22
2023-02-03T01:33:48.836Z,2.10
2023-02-03T01:36:17.817Z,1.98
2023-02-03T01:38:45.678Z,2.20
2023-02-03T01:41:19.391Z,2.22
2023-02-03T01:43:51.224Z,2.20
2023-02-03T01:46:28.353Z,2.17
2023-02-03T01:49:18.787Z,1.92
2023-02-03T01:51:46.155Z,2.38
2023-02-03T01:54:19.083Z,1.45
2023-02-03T01:56:52.356Z,2.05
2023-02-03T01:59:22.081Z,2.40
2023-02-03T02:01:52.497Z,2.40
2023-02-03T02:04:22.277Z,2.33
2023-02-03T02:06:51.726Z,1.85
2023-02-03T02:09:19.066Z,2.22
2023-02-03T02:11:46.417Z,1.92
2023-02-03T02:14:13.751Z,1.42
2023-02-03T02:16:59.754Z,2.15
2023-02-03T02:19:42.460Z,2.33
2023-02-03T02:22:42.391Z,1.70
2023-02-03T02:25:52.899Z,2.15
2023-02-03T02:28:39.684Z,3.15
2023-02-03T02:31:36.988Z,2.33
2023-02-03T02:34:10.906Z,1.80
2023-02-03T02:37:07.743Z,2.17
2023-02-03T02:39:46.991Z,2.55
2023-02-03T02:42:32.019Z,2.60
2023-02-03T02:45:10.568Z,2.00
2023-02-03T02:47:38.970Z,2.25
2023-02-03T02:50:22.733Z,2.75
2023-02-03T02:52:51.618Z,2.10
2023-02-03T02:55:27.902Z,3.53
2023-02-03T02:58:04.194Z,2.40
2023-02-03T03:00:33.409Z,2.42
2023-02-03T03:03:18.953Z,2.50
2023-02-03T03:05:54.183Z,1.80
2023-02-03T03:08:41.853Z,1.90
2023-02-03T03:11:11.571Z,2.00
2023-02-03T03:13:45.506Z,2.33
2023-02-03T03:16:15.316Z,1.80
2023-02-03T03:19:11.855Z,2.45
2023-02-03T03:21:54.179Z,2.67
2023-02-03T03:24:29.571Z,2.13
2023-02-03T03:27:13.621Z,2.20
2023-02-03T03:30:05.663Z,1.95
2023-02-03T03:32:33.759Z,2.53
2023-02-03T03:35:03.062Z,2.17
2023-02-03T03:37:57.181Z,2.05
2023-02-03T03:40:33.088Z,1.83
2023-02-03T03:43:08.223Z,2.17
2023-02-03T03:45:41.507Z,2.22
2023-02-03T03:48:33.621Z,2.85
2023-02-03T03:51:06.530Z,2.08
2023-02-03T03:53:38.495Z,1.95
2023-02-03T03:56:10.066Z,2.40
2023-02-03T03:58:39.690Z,1.70
2023-02-03T04:01:08.485Z,2.00
2023-02-03T04:03:41.938Z,2.17
2023-02-03T04:06:11.295Z,2.35
2023-02-03T04:08:39.609Z,1.92
2023-02-03T04:11:07.815Z,1.92
2023-02-03T04:13:35.306Z,1.70
2023-02-03T04:16:02.720Z,2.80
2023-02-03T04:18:30.279Z,2.65
2023-02-03T04:20:58.435Z,2.08
2023-02-03T04:23:25.633Z,2.10
2023-02-03T04:25:52.948Z,2.03
2023-02-03T04:28:20.474Z,1.98
2023-02-03T04:30:49.326Z,3.05
2023-02-03T04:33:17.075Z,2.58
2023-02-03T04:35:44.319Z,2.35
2023-02-03T04:38:11.634Z,2.10
2023-02-03T04:40:38.844Z,2.00
2023-02-03T04:43:09.864Z,1.80
2023-02-03T04:45:37.629Z,3.13
2023-02-03T04:48:05.054Z,1.85
2023-02-03T04:50:33.069Z,1.75
2023-02-03T04:53:01.195Z,2.15
2023-02-03T04:55:28.722Z,2.13
2023-02-03T04:57:57.784Z,2.03
2023-02-03T05:00:26.025Z,2.00
2023-02-03T05:02:53.655Z,1.73
2023-02-03T05:05:22.475Z,1.90
2023-02-03T05:07:49.873Z,1.98
2023-02-03T05:10:17.245Z,1.90
2023-02-03T05:12:44.703Z,3.00
2023-02-03T05:15:11.949Z,1.80
2023-02-03T05:17:40.940Z,1.70
2023-02-03T05:20:09.167Z,2.10
2023-02-03T05:22:36.643Z,2.53
2023-02-03T05:25:04.682Z,2.20
2023-02-03T05:27:32.469Z,1.98
2023-02-03T05:29:59.754Z,1.60
2023-02-03T05:32:27.485Z,2.20
2023-02-03T05:34:55.229Z,2.35
2023-02-03T05:37:25.824Z,2.15
2023-02-03T05:39:53.077Z,2.38
2023-02-03T05:42:20.224Z,2.30
2023-02-03T05:44:47.843Z,2.45
2023-02-03T05:47:15.136Z,2.75
2023-02-03T05:49:42.501Z,3.03
2023-02-03T05:52:09.797Z,2.47
2023-02-03T05:54:37.137Z,2.50
2023-02-03T05:57:04.391Z,2.42
2023-02-03T05:59:31.641Z,2.25
2023-02-03T06:01:58.962Z,2.20
2023-02-03T06:04:26.502Z,2.60
2023-02-03T06:06:53.811Z,2.45
2023-02-03T06:09:21.915Z,2.90
2023-02-03T06:11:49.357Z,3.30
2023-02-03T06:14:16.672Z,2.60
2023-02-03T06:16:44.054Z,2.78
2023-02-03T06:19:11.593Z,3.40
2023-02-03T06:21:38.848Z,2.92
2023-02-03T06:24:06.981Z,3.15
2023-02-03T06:26:34.253Z,3.78
2023-02-03T06:29:01.564Z,2.78
2023-02-03T06:31:29.056Z,3.22
2023-02-03T06:33:58.031Z,2.83
2023-02-03T06:36:25.770Z,3.20
2023-02-03T06:38:53.844Z,3.63
2023-02-03T06:41:27.054Z,4.57
2023-02-03T06:43:54.444Z,3.83
2023-02-03T06:46:23.287Z,4.25
2023-02-03T06:48:50.597Z,3.17
2023-02-03T06:51:17.900Z,3.55
2023-02-03T06:53:45.133Z,3.40
2023-02-03T06:56:12.435Z,2.88
2023-02-03T06:58:40.922Z,3.60
2023-02-03T07:01:08.243Z,3.38
2023-02-03T07:03:35.565Z,3.13
2023-02-03T07:06:03.167Z,3.70
2023-02-03T07:08:30.412Z,3.95
2023-02-03T07:10:58.279Z,3.25
2023-02-03T07:13:25.684Z,3.20
2023-02-03T07:15:53.163Z,3.40
2023-02-03T07:18:45.593Z,3.25
2023-02-03T07:21:13.056Z,4.03
2023-02-03T07:23:41.778Z,3.20
2023-02-03T07:26:10.838Z,3.80
2023-02-03T07:28:38.227Z,3.47
2023-02-03T07:31:05.802Z,3.67
2023-02-03T07:33:34.570Z,3.83
2023-02-03T07:36:02.177Z,4.35
2023-02-03T07:38:30.079Z,4.05
2023-02-03T07:40:57.659Z,4.80
2023-02-03T07:43:25.506Z,5.13
2023-02-03T07:45:52.787Z,3.92
2023-02-03T07:48:20.797Z,4.18
2023-02-03T07:50:49.059Z,3.88
2023-02-03T07:53:17.180Z,3.58
2023-02-03T07:55:44.529Z,3.65
2023-02-03T07:58:11.836Z,3.70
2023-02-03T08:00:39.129Z,4.13
2023-02-03T08:03:06.455Z,4.72
2023-02-03T08:05:33.847Z,3.50
2023-02-03T08:08:01.217Z,4.13
2023-02-03T08:10:28.772Z,4.10
2023-02-03T08:12:58.983Z,4.38
2023-02-03T08:15:26.263Z,5.55
2023-02-03T08:17:53.600Z,5.70
2023-02-03T08:20:21.280Z,4.55
2023-02-03T08:22:48.633Z,4.20
2023-02-03T08:25:17.344Z,5.18
2023-02-03T08:27:44.609Z,5.25
2023-02-03T08:30:13.856Z,4.65
2023-02-03T08:32:41.390Z,5.35
2023-02-03T08:35:09.131Z,5.15
2023-02-03T08:37:36.550Z,5.28
2023-02-03T08:40:04.867Z,8.02
2023-02-03T08:42:32.534Z,5.00
2023-02-03T08:44:59.816Z,4.85
2023-02-03T08:47:27.179Z,5.20
2023-02-03T08:49:54.561Z,5.30
2023-02-03T08:52:23.765Z,4.80
2023-02-03T08:54:51.162Z,5.20
2023-02-03T08:57:18.501Z,5.05
2023-02-03T08:59:45.873Z,6.57
2023-02-03T09:02:19.038Z,5.45
2023-02-03T09:04:55.783Z,4.70
2023-02-03T09:07:23.678Z,5.40
2023-02-03T09:09:51.065Z,6.40
2023-02-03T09:12:18.338Z,5.30
2023-02-03T09:14:45.739Z,6.15
2023-02-03T09:17:13.007Z,7.38
2023-02-03T09:19:41.934Z,5.72
2023-02-03T09:22:09.200Z,6.43
2023-02-03T09:24:37.901Z,5.80
2023-02-03T09:27:05.257Z,5.68
2023-02-03T09:29:32.967Z,6.65
2023-02-03T09:32:01.488Z,6.10
2023-02-03T09:34:28.952Z,7.00
2023-02-03T09:36:56.224Z,6.35
2023-02-03T09:39:24.170Z,4.90
2023-02-03T09:42:03.353Z,6.30
2023-02-03T09:44:48.225Z,6.65
2023-02-03T09:47:29.432Z,7.25
2023-02-03T09:50:03.592Z,7.93
2023-02-03T09:52:37.410Z,6.28
2023-02-03T09:55:28.475Z,6.40
2023-02-03T09:58:03.503Z,5.22
2023-02-03T10:00:41.285Z,6.80
2023-02-03T10:03:15.233Z,5.47
2023-02-03T10:06:23.652Z,6.72
2023-02-03T10:09:25.292Z,5.63
2023-02-03T10:11:58.459Z,6.30
2023-02-03T10:14:44.453Z,5.90
2023-02-03T10:17:30.762Z,5.75
2023-02-03T10:20:36.076Z,6.13
2023-02-03T10:23:11.597Z,5.18
2023-02-03T10:25:44.731Z,6.50
2023-02-03T10:28:18.760Z,5.53
2023-02-03T10:30:56.630Z,7.57
2023-02-03T10:33:29.885Z,5.95
2023-02-03T10:36:23.482Z,7.97
2023-02-03T10:39:08.283Z,7.00
2023-02-03T10:41:35.721Z,5.75
2023-02-03T10:44:07.363Z,6.72
2023-02-03T10:46:41.464Z,6.60
2023-02-03T10:49:13.016Z,8.07
2023-02-03T10:51:53.181Z,7.82
2023-02-03T10:54:29.676Z,7.20
2023-02-03T10:57:03.717Z,7.65
2023-02-03T10:59:35.898Z,8.73
2023-02-03T11:02:32.548Z,6.82
2023-02-03T11:05:21.812Z,8.93
2023-02-03T11:07:49.326Z,8.23
2023-02-03T11:10:34.339Z,8.43
2023-02-03T11:13:25.076Z,6.88
2023-02-03T11:16:17.896Z,7.00
2023-02-03T11:19:11.431Z,8.48
2023-02-03T11:21:38.849Z,8.50
2023-02-03T11:24:06.473Z,7.45
2023-02-03T11:26:40.300Z,6.03
2023-02-03T11:29:17.699Z,7.88
2023-02-03T11:31:49.245Z,5.95
2023-02-03T11:34:28.900Z,8.23
2023-02-03T11:36:56.893Z,7.25
2023-02-03T11:39:35.501Z,5.93
2023-02-03T11:42:03.673Z,7.45
2023-02-03T11:44:33.770Z,8.20
2023-02-03T11:47:09.469Z,8.35
2023-02-03T11:49:55.197Z,8.93
2023-02-03T11:52:51.126Z,7.97
2023-02-03T11:55:33.284Z,8.50
2023-02-03T11:58:38.334Z,6.95
2023-02-03T12:01:43.267Z,8.00
2023-02-03T12:04:44.723Z,6.95
2023-02-03T12:07:15.112Z,8.25
2023-02-03T12:10:03.833Z,6.80
2023-02-03T12:12:57.672Z,7.32
2023-02-03T12:15:44.057Z,6.55
2023-02-03T12:18:29.502Z,5.50
2023-02-03T12:21:05.882Z,6.10
2023-02-03T12:23:33.345Z,5.85
2023-02-03T12:26:17.466Z,6.72
2023-02-03T12:28:54.149Z,6.97
2023-02-03T12:31:38.224Z,6.32
2023-02-03T12:34:34.513Z,7.68
2023-02-03T12:37:22.090Z,6.75
2023-02-03T12:40:02.974Z,6.43
2023-02-03T12:43:02.666Z,7.25
2023-02-03T12:45:35.077Z,6.07
2023-02-03T12:48:11.988Z,7.43
2023-02-03T12:50:50.129Z,6.78
2023-02-03T12:53:24.906Z,5.80
2023-02-03T12:56:01.031Z,6.13
2023-02-03T12:58:40.145Z,5.97
2023-02-03T13:01:24.121Z,5.22
2023-02-03T13:03:56.812Z,5.05
2023-02-03T13:06:32.971Z,6.13
2023-02-03T13:09:18.342Z,6.60
2023-02-03T13:12:04.342Z,7.00
2023-02-03T13:14:49.229Z,6.85
2023-02-03T13:17:29.764Z,6.55
2023-02-03T13:20:04.842Z,6.53
2023-02-03T13:22:32.489Z,6.35
2023-02-03T13:25:47.071Z,8.43
2023-02-03T13:28:26.414Z,7.70
2023-02-03T13:31:18.518Z,7.40
2023-02-03T13:34:01.969Z,8.25
2023-02-03T13:37:00.918Z,7.35
2023-02-03T13:39:45.991Z,6.88
2023-02-03T13:42:19.438Z,6.88
2023-02-03T13:44:51.577Z,5.85
2023-02-03T13:47:27.348Z,7.43
2023-02-03T13:50:17.730Z,7.15
2023-02-03T13:52:57.173Z,5.20
2023-02-03T13:55:29.761Z,5.78
2023-02-03T13:57:58.229Z,6.53
2023-02-03T14:00:50.209Z,6.47
2023-02-03T14:03:27.104Z,7.07
2023-02-03T14:06:03.638Z,7.80
2023-02-03T14:08:30.883Z,7.05
2023-02-03T14:11:35.442Z,7.07
2023-02-03T14:14:06.840Z,7.68
2023-02-03T14:16:46.170Z,8.38
2023-02-03T14:19:13.630Z,7.25
2023-02-03T14:22:08.769Z,7.07
2023-02-03T14:24:42.040Z,5.88
2023-02-03T14:27:25.515Z,7.30
2023-02-03T14:30:14.774Z,6.25
2023-02-03T14:32:49.009Z,5.97
2023-02-03T14:35:22.189Z,5.60
2023-02-03T14:37:58.737Z,6.47
2023-02-03T14:40:58.545Z,5.65
2023-02-03T14:43:31.943Z,5.88
2023-02-03T14:46:02.395Z,5.35
2023-02-03T14:48:48.449Z,4.90
2023-02-03T14:51:15.706Z,6.32
2023-02-03T14:54:16.736Z,5.57
2023-02-03T14:59:39.040Z,7.30
2023-02-03T15:02:14.844Z,6.53
2023-02-03T15:04:43.531Z,8.40
2023-02-03T15:07:37.299Z,7.10
2023-02-03T15:10:13.740Z,6.93
2023-02-03T15:12:48.034Z,7.35
2023-02-03T15:15:23.760Z,6.63
2023-02-03T15:17:53.037Z,6.90
2023-02-03T15:20:35.492Z,5.70
2023-02-03T15:23:03.405Z,5.55
2023-02-03T15:25:33.556Z,6.22
2023-02-03T15:28:19.443Z,6.65
2023-02-03T15:30:51.820Z,6.35
2023-02-03T15:33:22.433Z,6.20
2023-02-03T15:35:55.823Z,5.55
2023-02-03T15:38:41.218Z,5.32
2023-02-03T15:41:17.294Z,6.35
2023-02-03T15:43:47.014Z,6.45
2023-02-03T15:46:26.144Z,7.30
2023-02-03T15:49:02.404Z,6.05
2023-02-03T15:51:39.758Z,6.70
2023-02-03T15:54:41.093Z,5.70
2023-02-03T15:57:14.942Z,5.40
2023-02-03T15:59:48.604Z,6.53
2023-02-03T16:02:18.270Z,6.50
2023-02-03T16:04:46.261Z,5.75
2023-02-03T16:07:21.114Z,6.13
2023-02-03T16:10:07.901Z,5.95
2023-02-03T16:12:35.825Z,6.72
2023-02-03T16:15:05.039Z,7.50
2023-02-03T16:17:38.786Z,7.40
2023-02-03T16:20:11.842Z,6.22
2023-02-03T16:22:45.687Z,6.95
2023-02-03T16:25:20.479Z,5.60
2023-02-03T16:28:25.857Z,6.68
2023-02-03T16:31:22.078Z,5.70
2023-02-03T16:34:09.681Z,6.47
2023-02-03T16:37:01.460Z,6.55
2023-02-03T16:39:47.483Z,5.93
2023-02-03T16:42:40.759Z,6.82
2023-02-03T16:45:33.498Z,5.90
2023-02-03T16:48:21.235Z,5.80
2023-02-03T16:50:57.562Z,5.13
2023-02-03T16:53:30.456Z,5.80
2023-02-03T16:56:00.725Z,7.03
2023-02-03T16:58:29.426Z,6.10
2023-02-03T17:00:59.495Z,5.68
2023-02-03T17:03:28.483Z,5.88
2023-02-03T17:05:57.535Z,6.22
2023-02-03T17:08:26.378Z,4.93
2023-02-03T17:10:53.979Z,6.15
2023-02-03T17:13:23.101Z,4.95
2023-02-03T17:15:55.414Z,5.45
2023-02-03T17:18:22.855Z,4.95
2023-02-03T17:20:51.281Z,6.63
2023-02-03T17:23:18.619Z,6.45
2023-02-03T17:25:49.322Z,6.10
2023-02-03T17:30:44.472Z,5.63
2023-02-03T17:33:12.156Z,5.88
2023-02-03T17:35:44.738Z,6.35
2023-02-03T17:38:14.423Z,6.15
2023-02-03T17:54:38.298Z,5.43
2023-02-03T17:57:05.730Z,5.50
2023-02-03T17:59:35.507Z,6.00
2023-02-03T18:02:02.937Z,6.00
2023-02-03T18:04:30.398Z,4.80
2023-02-03T18:06:58.361Z,6.03
2023-02-03T18:09:25.641Z,8.13
2023-02-03T18:11:52.951Z,5.00
2023-02-03T18:14:21.411Z,5.05
2023-02-03T18:16:49.126Z,6.20
2023-02-03T18:19:17.008Z,6.10
2023-02-03T18:21:44.966Z,5.63
2023-02-03T18:24:13.977Z,5.93
2023-02-03T18:26:52.208Z,5.20
2023-02-03T18:29:20.319Z,5.35
2023-02-03T18:31:48.432Z,5.72
2023-02-03T18:34:17.019Z,5.93
2023-02-03T18:36:45.079Z,5.70
2023-02-03T18:39:15.212Z,5.95
2023-02-03T18:41:42.703Z,6.70
2023-02-03T18:44:10.093Z,5.05
2023-02-03T18:46:37.444Z,4.97
2023-02-03T18:49:08.024Z,7.65
2023-02-03T18:51:35.703Z,6.05
2023-02-03T18:54:04.075Z,7.55
2023-02-03T18:56:37.178Z,6.05
2023-02-03T18:59:09.990Z,5.55
2023-02-03T19:01:39.081Z,6.32
2023-02-03T19:04:06.940Z,6.75
2023-02-03T19:06:35.914Z,8.15
2023-02-03T19:09:05.588Z,6.32
2023-02-03T19:11:33.817Z,7.40
2023-02-03T19:14:01.228Z,7.07
2023-02-03T19:16:28.829Z,5.82
2023-02-03T19:18:56.370Z,7.57
2023-02-03T19:21:23.645Z,5.85
2023-02-03T19:23:51.013Z,7.50
2023-02-03T19:26:18.592Z,7.28
2023-02-03T19:28:46.158Z,7.53
2023-02-03T19:31:15.719Z,5.70
2023-02-03T19:33:43.275Z,7.93
2023-02-03T19:36:11.486Z,6.03
2023-02-03T19:38:39.292Z,6.80
2023-02-03T19:41:08.112Z,6.78
2023-02-03T19:43:36.182Z,7.45
2023-02-03T19:46:03.581Z,6.88
2023-02-03T19:48:30.833Z,6.05
2023-02-03T19:50:58.184Z,6.35
2023-02-03T19:53:25.634Z,8.23
2023-02-03T19:55:53.346Z,7.97
2023-02-03T19:58:21.300Z,7.32
2023-02-03T20:00:48.621Z,6.07
2023-02-03T20:03:18.144Z,6.95
2023-02-03T20:05:47.247Z,6.50
2023-02-03T20:08:17.053Z,7.53
2023-02-03T20:10:45.583Z,6.73
2023-02-03T20:13:13.731Z,7.07
2023-02-03T20:15:41.832Z,7.10
2023-02-03T20:18:09.224Z,7.18
2023-02-03T20:20:36.712Z,7.20
2023-02-03T20:23:04.074Z,7.55
2023-02-03T20:25:33.470Z,6.38
2023-02-03T20:28:02.752Z,5.85
2023-02-03T20:30:30.415Z,6.35
2023-02-03T20:32:58.666Z,6.65
2023-02-03T20:35:27.375Z,5.80
2023-02-03T20:37:54.703Z,7.03
2023-02-03T20:40:24.064Z,6.32
2023-02-03T20:42:53.046Z,7.13
2023-02-03T20:45:23.256Z,6.90
2023-02-03T20:47:51.573Z,6.85
2023-02-03T20:50:25.155Z,6.85
2023-02-03T20:52:57.179Z,7.15
2023-02-03T20:55:24.556Z,7.85
2023-02-03T20:57:55.049Z,6.68
2023-02-03T21:00:26.243Z,7.18
2023-02-03T21:03:12.930Z,6.30
2023-02-03T21:05:42.868Z,7.63
2023-02-03T21:08:19.690Z,6.82
2023-02-03T21:10:48.511Z,6.22
2023-02-03T21:13:24.130Z,7.35
2023-02-03T21:15:54.922Z,7.38
2023-02-03T21:20:55.509Z,7.50
2023-02-03T21:23:26.761Z,6.38
2023-02-03T21:25:54.604Z,6.72
2023-02-03T21:28:28.023Z,6.60
2023-02-03T21:30:55.710Z,7.18
2023-02-03T21:33:32.771Z,7.28
2023-02-03T21:36:00.133Z,6.90
2023-02-03T21:38:28.323Z,6.80
2023-02-03T21:40:55.660Z,6.28
2023-02-03T21:43:24.679Z,7.93
2023-02-03T21:45:52.086Z,6.55
2023-02-03T21:48:23.729Z,7.20
2023-02-03T21:50:55.269Z,7.35
2023-02-03T21:53:35.939Z,7.53
2023-02-03T21:56:28.029Z,5.70
2023-02-03T21:59:00.280Z,7.15
2023-02-03T22:01:36.316Z,6.75
2023-02-03T22:04:06.582Z,8.30
2023-02-03T22:06:53.350Z,8.10
2023-02-03T22:09:26.412Z,6.80
2023-02-03T22:11:53.718Z,6.70
2023-02-03T22:14:21.139Z,6.35
2023-02-03T22:16:48.811Z,7.03
2023-02-03T22:19:18.961Z,6.40
2023-02-03T22:21:47.778Z,6.68
2023-02-03T22:24:14.957Z,8.10
2023-02-03T22:26:42.146Z,6.90
2023-02-03T22:29:09.414Z,6.13
2023-02-03T22:31:36.809Z,6.20
2023-02-03T22:34:04.085Z,7.00
2023-02-03T22:36:33.395Z,7.13
2023-02-03T22:39:00.713Z,7.75
2023-02-03T22:41:27.922Z,7.88
2023-02-03T22:44:00.283Z,9.13
2023-02-03T22:46:27.629Z,6.72
2023-02-03T22:48:54.976Z,7.03
2023-02-03T22:51:22.249Z,5.88
2023-02-03T22:53:49.422Z,7.05
2023-02-03T22:56:16.663Z,6.88
2023-02-03T22:58:44.001Z,7.55
2023-02-03T23:01:11.247Z,7.13
2023-02-03T23:03:38.618Z,7.38
2023-02-03T23:06:06.188Z,6.35
2023-02-03T23:08:33.777Z,5.97
2023-02-03T23:11:01.135Z,8.75
2023-02-03T23:13:28.852Z,6.82
2023-02-03T23:15:56.420Z,8.25
2023-02-03T23:18:23.847Z,8.30
2023-02-03T23:20:51.337Z,6.40
2023-02-03T23:23:18.573Z,6.90
2023-02-03T23:25:46.097Z,6.22
2023-02-03T23:28:13.563Z,7.63
2023-02-03T23:30:42.486Z,7.68
2023-02-03T23:33:09.935Z,7.00
2023-02-03T23:35:46.226Z,6.40
2023-02-03T23:38:15.144Z,6.68
2023-02-03T23:40:43.377Z,6.93
2023-02-03T23:43:10.645Z,7.28
2023-02-03T23:45:37.967Z,7.90
2023-02-03T23:48:05.848Z,5.95
2023-02-03T23:50:33.788Z,7.03
2023-02-03T23:53:03.881Z,7.32
2023-02-03T23:55:33.802Z,7.25
2023-02-03T23:58:01.098Z,7.63
